Aviation Digital Data Service (ADDS)

Output produced by METARs form (1639 UTC 21 September 2018)
found at http://www.aviationweather.gov/metar/data/
 
KHKY 211553Z 25003KT 10SM SCT030 BKN038 27/21 A3022 RMK AO2 SLP210 T02670211
KHKY 211548Z 24003KT 10SM SCT030 26/21 A3022 RMK AO2
KHKY 211540Z 23004KT 10SM BKN028 26/21 A3023 RMK AO2 T02610206
KHKY 211239Z 2113/2212 VRB02KT P6SM SKC 
     FM211500 22004KT P6SM SCT035 
     FM212100 20007KT P6SM FEW040 
     FM220900 VRB03KT 3SM BR FEW140